Pagrindinis puslapis
METAR-TAF:

METAR-TAF

Oro uostai :

Kamčiatkos Petropavlovskas, Rusija

platuma: 53-05N, ilguma: 158-35E, Aukštis: 24 m

Dabartinis oras

Ataskaita buvo paskelbta 30 minutes, ne 21:30 UTC
Vėjas 6 kt iš Šiaurės/Šiaurės Vakarų
Temperatūra -7°C
Drėgmė 93%
Slėgis 1008 hPa
Matomumas: 1400 m
Išsisklaidę debesys ne aukštis 1300 ft
Apsiniaukę ne aukštis 2400 ft, Liūtiniai kamuoliniai debesys.
sniegas

METAR: UHPP 292130Z 34003MPS 2200 1400SE R34/1400D SHSN SCT013 OVC024CB M07/M08 Q1008 R34L/490234 NOSIG RMK MT OBSC QFE753/1004

Laikas: 10:00 (22:00 UTC)

Prognozė

Ataskaita buvo paskelbta 2 valandos ir 23 minutes, ne 19:37 UTC
Prognozė galioja nuo 29 metu 21 UTC su 01 metu 03 UTC
Vėjas 6 kt iš Šiaurės Vakarų su gūsio iki 23 kt
Matomumas: 5000 m
Su prošvaistėmis ne aukštis 2000 ft, Liūtiniai kamuoliniai debesys.
sniegas
Laikinai
nuo 29 metu 21 UTC su 30 metu 09 UTC
Matomumas: 0500 m
ne aukštis 200 ft
sniegas

TAF: UHPP 291937Z 2921/0103 32003G12MPS 5000 -SHSN BKN020CB TEMPO 2921/3009 0500 +SHSN VV002

Orai ataskaitas ir orų prognozės (METAR, TAF).

turimą stotys yra geltonos ir raudonos taškus žemėlapyje.

Perkelti pele per norėdami pamatyti stoties vardą.

Tada spustelėkite, norėdami matyti oro stebėjimo ir prognozės.

Norėdami pakeisti žemėlapį: spustelėkite ant žalios mygtukų su juodo kryžiaus žemyn,; žalią mygtuką su brūkšneliu, jei norite nutolinti; arba žalių rodyklių gretimoms žemėlapius.


METAR-TAF: